sensor_id;sensor_type;location;lat;lon;timestamp;P1;P2;P0
29460;PMS7003;16428;47.836;35.106;2023-04-01T00:00:57;3.50;2.00;2.00
29460;PMS7003;16428;47.836;35.106;2023-04-01T00:03:26;2.25;1.75;1.75
29460;PMS7003;16428;47.836;35.106;2023-04-01T00:05:57;2.25;2.25;2.00
29460;PMS7003;16428;47.836;35.106;2023-04-01T00:08:25;3.25;2.25;2.00
29460;PMS7003;16428;47.836;35.106;2023-04-01T00:10:54;3.00;1.00;1.00
29460;PMS7003;16428;47.836;35.106;2023-04-01T00:13:23;2.50;2.50;2.25
29460;PMS7003;16428;47.836;35.106;2023-04-01T00:15:53;4.00;1.25;1.25
29460;PMS7003;16428;47.836;35.106;2023-04-01T00:18:23;3.00;3.00;3.00
29460;PMS7003;16428;47.836;35.106;2023-04-01T00:20:52;3.00;3.00;2.75
29460;PMS7003;16428;47.836;35.106;2023-04-01T00:23:25;5.00;3.00;2.75
29460;PMS7003;16428;47.836;35.106;2023-04-01T00:25:53;2.00;2.00;2.00
29460;PMS7003;16428;47.836;35.106;2023-04-01T00:28:20;3.00;3.00;2.00
29460;PMS7003;16428;47.836;35.106;2023-04-01T00:30:48;4.00;4.00;4.00
29460;PMS7003;16428;47.836;35.106;2023-04-01T00:33:19;3.25;2.50;1.50
29460;PMS7003;16428;47.836;35.106;2023-04-01T00:36:13;2.00;2.00;1.50
29460;PMS7003;16428;47.836;35.106;2023-04-01T00:38:44;3.75;3.50;2.50
29460;PMS7003;16428;47.836;35.106;2023-04-01T00:41:13;1.00;1.00;1.00
29460;PMS7003;16428;47.836;35.106;2023-04-01T00:43:43;4.75;1.75;1.75
29460;PMS7003;16428;47.836;35.106;2023-04-01T00:46:13;3.00;3.00;2.00
29460;PMS7003;16428;47.836;35.106;2023-04-01T00:48:44;3.25;1.50;1.00
29460;PMS7003;16428;47.836;35.106;2023-04-01T00:51:17;0.25;0.25;0.25
29460;PMS7003;16428;47.836;35.106;2023-04-01T00:53:51;2.00;2.00;2.00
29460;PMS7003;16428;47.836;35.106;2023-04-01T00:56:22;2.75;2.75;1.75
29460;PMS7003;16428;47.836;35.106;2023-04-01T00:58:56;1.00;1.00;1.00
29460;PMS7003;16428;47.836;35.106;2023-04-01T01:01:27;2.00;2.00;2.00
29460;PMS7003;16428;47.836;35.106;2023-04-01T01:03:59;5.00;3.75;2.75
29460;PMS7003;16428;47.836;35.106;2023-04-01T01:09:29;2.00;2.00;2.00
29460;PMS7003;16428;47.836;35.106;2023-04-01T01:15:01;5.50;3.00;2.25
29460;PMS7003;16428;47.836;35.106;2023-04-01T01:31:23;4.00;4.00;3.25
29460;PMS7003;16428;47.836;35.106;2023-04-01T01:37:12;7.75;4.00;4.00
29460;PMS7003;16428;47.836;35.106;2023-04-01T01:39:44;8.25;8.25;6.75
29460;PMS7003;16428;47.836;35.106;2023-04-01T01:42:18;18.75;17.75;14.75
29460;PMS7003;16428;47.836;35.106;2023-04-01T01:44:52;11.00;11.00;9.50
29460;PMS7003;16428;47.836;35.106;2023-04-01T01:47:23;4.75;4.75;4.00
29460;PMS7003;16428;47.836;35.106;2023-04-01T01:49:54;12.50;9.50;7.75
29460;PMS7003;16428;47.836;35.106;2023-04-01T01:52:24;11.75;10.75;7.50
29460;PMS7003;16428;47.836;35.106;2023-04-01T01:54:55;3.50;3.50;3.25
29460;PMS7003;16428;47.836;35.106;2023-04-01T01:57:34;3.75;3.75;3.75
29460;PMS7003;16428;47.836;35.106;2023-04-01T02:00:08;4.00;3.00;3.00
29460;PMS7003;16428;47.836;35.106;2023-04-01T02:02:42;5.00;4.25;3.50
29460;PMS7003;16428;47.836;35.106;2023-04-01T02:05:15;5.25;5.25;4.00
29460;PMS7003;16428;47.836;35.106;2023-04-01T02:10:46;5.00;5.00;5.00
29460;PMS7003;16428;47.836;35.106;2023-04-01T02:13:53;3.75;3.75;3.75
29460;PMS7003;16428;47.836;35.106;2023-04-01T02:16:23;9.00;5.50;4.50
29460;PMS7003;16428;47.836;35.106;2023-04-01T02:19:13;2.00;2.00;2.00
29460;PMS7003;16428;47.836;35.106;2023-04-01T02:21:50;3.25;3.25;3.25
29460;PMS7003;16428;47.836;35.106;2023-04-01T02:24:25;4.75;4.75;2.75
29460;PMS7003;16428;47.836;35.106;2023-04-01T02:26:56;5.00;3.25;3.00
29460;PMS7003;16428;47.836;35.106;2023-04-01T02:29:24;6.75;4.00;3.00
29460;PMS7003;16428;47.836;35.106;2023-04-01T02:31:53;6.50;6.50;5.00
29460;PMS7003;16428;47.836;35.106;2023-04-01T02:34:22;6.25;4.75;3.00
29460;PMS7003;16428;47.836;35.106;2023-04-01T02:36:51;3.00;3.00;2.00
29460;PMS7003;16428;47.836;35.106;2023-04-01T02:39:27;4.50;4.50;4.00
29460;PMS7003;16428;47.836;35.106;2023-04-01T02:41:55;4.25;2.50;2.50
29460;PMS7003;16428;47.836;35.106;2023-04-01T02:44:22;2.75;2.75;2.25
29460;PMS7003;16428;47.836;35.106;2023-04-01T02:46:50;7.00;7.00;4.50
29460;PMS7003;16428;47.836;35.106;2023-04-01T02:49:18;5.00;5.00;4.50
29460;PMS7003;16428;47.836;35.106;2023-04-01T02:51:51;6.50;3.00;2.25
29460;PMS7003;16428;47.836;35.106;2023-04-01T02:54:19;3.75;3.75;3.00
29460;PMS7003;16428;47.836;35.106;2023-04-01T02:56:47;4.00;4.00;4.00
29460;PMS7003;16428;47.836;35.106;2023-04-01T02:59:15;7.75;4.00;2.00
29460;PMS7003;16428;47.836;35.106;2023-04-01T03:01:43;2.50;2.50;2.00
29460;PMS7003;16428;47.836;35.106;2023-04-01T03:04:10;4.00;4.00;3.00
29460;PMS7003;16428;47.836;35.106;2023-04-01T03:06:38;5.50;5.50;5.00
29460;PMS7003;16428;47.836;35.106;2023-04-01T03:09:06;6.50;5.00;3.25
29460;PMS7003;16428;47.836;35.106;2023-04-01T03:11:33;3.00;3.00;2.00
29460;PMS7003;16428;47.836;35.106;2023-04-01T03:14:05;4.00;2.50;2.50
29460;PMS7003;16428;47.836;35.106;2023-04-01T03:16:33;8.75;6.50;4.25
29460;PMS7003;16428;47.836;35.106;2023-04-01T03:19:01;5.75;5.75;4.50
29460;PMS7003;16428;47.836;35.106;2023-04-01T03:21:31;6.50;4.00;3.50
29460;PMS7003;16428;47.836;35.106;2023-04-01T03:23:59;3.75;3.75;3.00
29460;PMS7003;16428;47.836;35.106;2023-04-01T03:26:27;5.00;5.00;4.75
29460;PMS7003;16428;47.836;35.106;2023-04-01T03:28:54;9.25;6.50;4.50
29460;PMS7003;16428;47.836;35.106;2023-04-01T03:31:23;4.50;4.50;3.00
29460;PMS7003;16428;47.836;35.106;2023-04-01T03:33:52;8.00;3.00;3.00
29460;PMS7003;16428;47.836;35.106;2023-04-01T03:36:20;4.00;4.00;3.00
29460;PMS7003;16428;47.836;35.106;2023-04-01T03:38:53;4.00;4.00;3.00
29460;PMS7003;16428;47.836;35.106;2023-04-01T03:41:21;3.50;3.50;2.50
29460;PMS7003;16428;47.836;35.106;2023-04-01T03:43:48;4.25;4.25;3.75
29460;PMS7003;16428;47.836;35.106;2023-04-01T03:46:18;7.50;4.50;4.00
29460;PMS7003;16428;47.836;35.106;2023-04-01T03:48:47;4.25;4.25;3.50
29460;PMS7003;16428;47.836;35.106;2023-04-01T03:51:15;6.00;6.00;4.00
29460;PMS7003;16428;47.836;35.106;2023-04-01T03:53:43;4.00;4.00;4.00
29460;PMS7003;16428;47.836;35.106;2023-04-01T03:56:11;28.25;23.50;18.50
29460;PMS7003;16428;47.836;35.106;2023-04-01T03:58:39;7.00;7.00;5.00
29460;PMS7003;16428;47.836;35.106;2023-04-01T04:01:17;6.00;6.00;4.00
29460;PMS7003;16428;47.836;35.106;2023-04-01T04:03:54;7.75;7.75;6.50
29460;PMS7003;16428;47.836;35.106;2023-04-01T04:06:24;5.50;5.50;5.50
29460;PMS7003;16428;47.836;35.106;2023-04-01T04:08:55;6.75;5.50;4.00
29460;PMS7003;16428;47.836;35.106;2023-04-01T04:11:23;10.25;7.75;6.50
29460;PMS7003;16428;47.836;35.106;2023-04-01T04:13:51;9.25;7.25;6.50
29460;PMS7003;16428;47.836;35.106;2023-04-01T04:16:20;7.00;5.00;4.00
29460;PMS7003;16428;47.836;35.106;2023-04-01T04:18:47;12.25;9.00;8.50
29460;PMS7003;16428;47.836;35.106;2023-04-01T04:21:15;5.00;5.00;5.00
29460;PMS7003;16428;47.836;35.106;2023-04-01T04:23:43;10.00;10.00;8.75
29460;PMS7003;16428;47.836;35.106;2023-04-01T04:26:13;6.50;6.50;4.75
29460;PMS7003;16428;47.836;35.106;2023-04-01T04:28:42;8.75;8.75;6.50
29460;PMS7003;16428;47.836;35.106;2023-04-01T04:31:10;9.00;9.00;8.00
29460;PMS7003;16428;47.836;35.106;2023-04-01T04:33:38;9.00;8.00;7.00
29460;PMS7003;16428;47.836;35.106;2023-04-01T04:36:06;8.75;8.75;6.50
29460;PMS7003;16428;47.836;35.106;2023-04-01T04:38:37;10.75;8.25;7.50
29460;PMS7003;16428;47.836;35.106;2023-04-01T04:41:09;10.00;10.00;8.00
29460;PMS7003;16428;47.836;35.106;2023-04-01T04:43:40;9.75;9.75;7.75
29460;PMS7003;16428;47.836;35.106;2023-04-01T04:46:09;15.75;9.75;7.50
29460;PMS7003;16428;47.836;35.106;2023-04-01T04:48:37;3.00;3.00;2.00
29460;PMS7003;16428;47.836;35.106;2023-04-01T04:51:05;8.00;5.50;5.00
29460;PMS7003;16428;47.836;35.106;2023-04-01T04:53:33;7.50;6.75;5.00
29460;PMS7003;16428;47.836;35.106;2023-04-01T04:56:01;10.50;10.50;8.50
29460;PMS7003;16428;47.836;35.106;2023-04-01T04:58:29;13.25;11.00;8.50
29460;PMS7003;16428;47.836;35.106;2023-04-01T05:00:57;14.25;14.25;9.75
29460;PMS7003;16428;47.836;35.106;2023-04-01T05:03:27;10.00;10.00;10.00
29460;PMS7003;16428;47.836;35.106;2023-04-01T05:05:55;9.25;9.25;8.50
29460;PMS7003;16428;47.836;35.106;2023-04-01T05:08:23;14.25;13.50;10.75
29460;PMS7003;16428;47.836;35.106;2023-04-01T05:10:56;9.50;8.50;7.00
29460;PMS7003;16428;47.836;35.106;2023-04-01T05:13:23;11.75;11.75;9.75
29460;PMS7003;16428;47.836;35.106;2023-04-01T05:15:56;16.00;13.50;10.50
29460;PMS7003;16428;47.836;35.106;2023-04-01T05:18:24;11.00;11.00;9.00
29460;PMS7003;16428;47.836;35.106;2023-04-01T05:20:52;17.75;10.50;9.25
29460;PMS7003;16428;47.836;35.106;2023-04-01T05:23:22;15.50;15.50;11.75
29460;PMS7003;16428;47.836;35.106;2023-04-01T05:25:50;13.75;13.75;10.00
29460;PMS7003;16428;47.836;35.106;2023-04-01T05:28:19;10.25;10.25;8.25
29460;PMS7003;16428;47.836;35.106;2023-04-01T05:30:47;10.00;10.00;9.00
29460;PMS7003;16428;47.836;35.106;2023-04-01T05:33:16;9.75;9.75;8.75
29460;PMS7003;16428;47.836;35.106;2023-04-01T05:35:44;12.50;9.75;8.50
29460;PMS7003;16428;47.836;35.106;2023-04-01T05:38:14;16.75;11.50;11.00
29460;PMS7003;16428;47.836;35.106;2023-04-01T05:40:42;10.00;10.00;8.50
29460;PMS7003;16428;47.836;35.106;2023-04-01T05:43:09;11.00;11.00;9.00
29460;PMS7003;16428;47.836;35.106;2023-04-01T05:45:37;18.00;14.00;11.00
29460;PMS7003;16428;47.836;35.106;2023-04-01T05:48:04;9.00;9.00;8.00
29460;PMS7003;16428;47.836;35.106;2023-04-01T05:50:32;17.00;16.50;12.00
29460;PMS7003;16428;47.836;35.106;2023-04-01T05:53:01;11.00;11.00;9.50
29460;PMS7003;16428;47.836;35.106;2023-04-01T05:55:28;14.00;14.00;11.00
29460;PMS7003;16428;47.836;35.106;2023-04-01T05:57:57;13.75;11.75;9.25
29460;PMS7003;16428;47.836;35.106;2023-04-01T06:00:25;12.00;11.50;9.00
29460;PMS7003;16428;47.836;35.106;2023-04-01T06:03:12;14.00;9.75;8.25
29460;PMS7003;16428;47.836;35.106;2023-04-01T06:05:41;9.00;9.00;7.50
29460;PMS7003;16428;47.836;35.106;2023-04-01T06:08:14;10.50;8.00;5.00
29460;PMS7003;16428;47.836;35.106;2023-04-01T06:17:43;11.00;11.00;7.75
29460;PMS7003;16428;47.836;35.106;2023-04-01T06:20:18;9.75;9.25;8.00
29460;PMS7003;16428;47.836;35.106;2023-04-01T06:47:25;10.50;10.50;7.75
29460;PMS7003;16428;47.836;35.106;2023-04-01T06:50:16;11.00;9.50;6.00
29460;PMS7003;16428;47.836;35.106;2023-04-01T06:52:56;9.25;9.00;6.75
29460;PMS7003;16428;47.836;35.106;2023-04-01T06:55:40;11.50;9.50;8.00
29460;PMS7003;16428;47.836;35.106;2023-04-01T06:58:18;12.00;10.25;8.00
29460;PMS7003;16428;47.836;35.106;2023-04-01T07:00:48;12.00;9.50;7.50
29460;PMS7003;16428;47.836;35.106;2023-04-01T07:03:35;11.00;10.00;9.25
29460;PMS7003;16428;47.836;35.106;2023-04-01T07:06:31;13.25;12.25;9.00
29460;PMS7003;16428;47.836;35.106;2023-04-01T07:09:05;10.00;9.25;8.00
29460;PMS7003;16428;47.836;35.106;2023-04-01T07:11:37;15.00;10.25;8.50
29460;PMS7003;16428;47.836;35.106;2023-04-01T07:14:20;11.50;9.00;8.00
29460;PMS7003;16428;47.836;35.106;2023-04-01T07:16:59;16.25;14.50;11.25
29460;PMS7003;16428;47.836;35.106;2023-04-01T07:24:56;12.00;9.25;8.00
29460;PMS7003;16428;47.836;35.106;2023-04-01T07:27:48;12.00;11.25;10.25
29460;PMS7003;16428;47.836;35.106;2023-04-01T07:30:19;10.25;10.25;8.50
29460;PMS7003;16428;47.836;35.106;2023-04-01T07:33:07;12.00;9.75;9.00
29460;PMS7003;16428;47.836;35.106;2023-04-01T07:41:32;20.00;12.25;9.00
29460;PMS7003;16428;47.836;35.106;2023-04-01T07:47:13;15.50;11.25;10.50
29460;PMS7003;16428;47.836;35.106;2023-04-01T07:53:00;10.25;10.25;8.75
29460;PMS7003;16428;47.836;35.106;2023-04-01T08:22:50;25.25;17.75;13.50
29460;PMS7003;16428;47.836;35.106;2023-04-01T08:25:24;21.00;18.50;12.75
29460;PMS7003;16428;47.836;35.106;2023-04-01T08:28:03;23.50;20.00;14.00
29460;PMS7003;16428;47.836;35.106;2023-04-01T08:30:40;24.25;18.75;13.25
29460;PMS7003;16428;47.836;35.106;2023-04-01T08:35:41;25.50;17.50;11.00
29460;PMS7003;16428;47.836;35.106;2023-04-01T08:38:34;15.25;15.25;12.00
29460;PMS7003;16428;47.836;35.106;2023-04-01T08:52:37;25.75;19.75;14.50
29460;PMS7003;16428;47.836;35.106;2023-04-01T08:55:40;16.00;16.00;12.00
29460;PMS7003;16428;47.836;35.106;2023-04-01T09:01:38;16.50;16.50;12.50
29460;PMS7003;16428;47.836;35.106;2023-04-01T09:04:32;21.25;19.00;12.25
29460;PMS7003;16428;47.836;35.106;2023-04-01T09:10:40;21.25;16.50;12.50
29460;PMS7003;16428;47.836;35.106;2023-04-01T09:13:28;14.00;11.75;9.25
29460;PMS7003;16428;47.836;35.106;2023-04-01T09:39:13;17.00;14.00;12.00
29460;PMS7003;16428;47.836;35.106;2023-04-01T09:47:10;14.00;14.00;11.50
29460;PMS7003;16428;47.836;35.106;2023-04-01T09:50:14;18.25;14.75;12.00
29460;PMS7003;16428;47.836;35.106;2023-04-01T09:55:18;18.50;15.25;12.25
29460;PMS7003;16428;47.836;35.106;2023-04-01T09:58:07;17.25;17.25;12.50
29460;PMS7003;16428;47.836;35.106;2023-04-01T10:18:08;22.25;21.75;16.75
29460;PMS7003;16428;47.836;35.106;2023-04-01T10:21:45;25.00;22.75;15.00
29460;PMS7003;16428;47.836;35.106;2023-04-01T10:26:48;31.50;28.00;20.75
29460;PMS7003;16428;47.836;35.106;2023-04-01T10:29:46;32.00;26.50;18.25
29460;PMS7003;16428;47.836;35.106;2023-04-01T11:27:44;13.25;9.25;8.00
29460;PMS7003;16428;47.836;35.106;2023-04-01T11:41:30;13.00;13.00;10.00
29460;PMS7003;16428;47.836;35.106;2023-04-01T11:44:15;7.50;6.00;3.00
29460;PMS7003;16428;47.836;35.106;2023-04-01T11:49:51;17.50;13.00;9.25
29460;PMS7003;16428;47.836;35.106;2023-04-01T11:58:19;12.00;10.00;8.25
29460;PMS7003;16428;47.836;35.106;2023-04-01T12:01:04;13.50;13.00;9.00
29460;PMS7003;16428;47.836;35.106;2023-04-01T12:03:50;14.75;12.00;10.00
29460;PMS7003;16428;47.836;35.106;2023-04-01T12:12:18;15.25;15.00;11.25
29460;PMS7003;16428;47.836;35.106;2023-04-01T12:20:50;12.50;12.50;11.00
29460;PMS7003;16428;47.836;35.106;2023-04-01T12:36:52;7.00;7.00;5.00
29460;PMS7003;16428;47.836;35.106;2023-04-01T12:53:59;1.33;1.33;1.00
29460;PMS7003;16428;47.836;35.106;2023-04-01T12:56:44;10.33;5.00;4.33
29460;PMS7003;16428;47.836;35.106;2023-04-01T13:02:27;7.33;5.00;4.00
29460;PMS7003;16428;47.836;35.106;2023-04-01T13:08:18;5.67;5.67;5.00
29460;PMS7003;16428;47.836;35.106;2023-04-01T13:10:52;4.67;4.67;4.33
29460;PMS7003;16428;47.836;35.106;2023-04-01T13:13:53;11.00;9.00;6.50
29460;PMS7003;16428;47.836;35.106;2023-04-01T13:17:01;5.67;3.67;3.00
29460;PMS7003;16428;47.836;35.106;2023-04-01T13:25:54;5.33;3.00;3.00
29460;PMS7003;16428;47.836;35.106;2023-04-01T13:31:25;9.75;6.75;5.00
29460;PMS7003;16428;47.836;35.106;2023-04-01T13:40:04;4.33;4.33;3.67
29460;PMS7003;16428;47.836;35.106;2023-04-01T13:42:46;6.00;4.67;4.00
29460;PMS7003;16428;47.836;35.106;2023-04-01T13:53:45;5.00;5.00;4.00
29460;PMS7003;16428;47.836;35.106;2023-04-01T14:02:27;4.33;4.33;3.00
29460;PMS7003;16428;47.836;35.106;2023-04-01T14:08:14;9.00;4.67;4.00
29460;PMS7003;16428;47.836;35.106;2023-04-01T14:14:09;7.00;5.00;4.00
29460;PMS7003;16428;47.836;35.106;2023-04-01T14:36:25;5.00;3.67;3.33
29460;PMS7003;16428;47.836;35.106;2023-04-01T14:39:22;4.00;4.00;3.00
29460;PMS7003;16428;47.836;35.106;2023-04-01T14:47:59;2.00;2.00;1.00
29460;PMS7003;16428;47.836;35.106;2023-04-01T14:50:45;14.50;6.00;5.00
29460;PMS7003;16428;47.836;35.106;2023-04-01T14:55:56;8.50;7.00;6.00
29460;PMS7003;16428;47.836;35.106;2023-04-01T14:58:59;5.00;5.00;3.25
29460;PMS7003;16428;47.836;35.106;2023-04-01T15:01:37;8.00;6.50;6.50
29460;PMS7003;16428;47.836;35.106;2023-04-01T15:09:48;6.50;6.50;4.00
29460;PMS7003;16428;47.836;35.106;2023-04-01T15:12:35;10.50;10.00;8.00
29460;PMS7003;16428;47.836;35.106;2023-04-01T15:23:13;4.75;4.75;4.75
29460;PMS7003;16428;47.836;35.106;2023-04-01T15:31:11;5.50;5.50;4.25
29460;PMS7003;16428;47.836;35.106;2023-04-01T15:37:06;7.00;6.75;5.00
29460;PMS7003;16428;47.836;35.106;2023-04-01T15:39:42;6.25;5.25;5.00
29460;PMS7003;16428;47.836;35.106;2023-04-01T15:47:52;6.75;6.75;5.50
29460;PMS7003;16428;47.836;35.106;2023-04-01T15:50:51;7.00;5.75;4.00
29460;PMS7003;16428;47.836;35.106;2023-04-01T15:53:29;16.50;16.50;13.50
29460;PMS7003;16428;47.836;35.106;2023-04-01T15:56:26;10.75;8.50;5.00
29460;PMS7003;16428;47.836;35.106;2023-04-01T15:59:20;9.75;5.50;5.50
29460;PMS7003;16428;47.836;35.106;2023-04-01T16:04:41;14.75;8.50;7.75
29460;PMS7003;16428;47.836;35.106;2023-04-01T16:07:22;11.00;11.00;8.75
29460;PMS7003;16428;47.836;35.106;2023-04-01T16:21:24;7.00;7.00;6.00
29460;PMS7003;16428;47.836;35.106;2023-04-01T16:32:51;10.00;10.00;8.00
29460;PMS7003;16428;47.836;35.106;2023-04-01T16:46:40;12.25;9.75;7.00
29460;PMS7003;16428;47.836;35.106;2023-04-01T16:54:07;8.75;8.75;7.00
29460;PMS7003;16428;47.836;35.106;2023-04-01T16:57:14;12.50;10.75;8.00
29460;PMS7003;16428;47.836;35.106;2023-04-01T17:00:36;11.00;11.00;8.25
29460;PMS7003;16428;47.836;35.106;2023-04-01T17:08:10;10.75;8.00;6.00
29460;PMS7003;16428;47.836;35.106;2023-04-01T17:10:56;10.75;8.00;5.00
29460;PMS7003;16428;47.836;35.106;2023-04-01T17:22:00;7.50;6.75;6.00
29460;PMS7003;16428;47.836;35.106;2023-04-01T17:24:35;13.75;10.50;8.25
29460;PMS7003;16428;47.836;35.106;2023-04-01T17:27:21;7.50;6.50;6.25
29460;PMS7003;16428;47.836;35.106;2023-04-01T17:41:41;6.50;6.00;5.00
29460;PMS7003;16428;47.836;35.106;2023-04-01T17:47:01;9.75;6.50;5.75
29460;PMS7003;16428;47.836;35.106;2023-04-01T17:52:59;8.50;7.75;5.00
29460;PMS7003;16428;47.836;35.106;2023-04-01T18:01:40;10.50;6.00;5.50
29460;PMS7003;16428;47.836;35.106;2023-04-01T18:21:23;13.75;13.75;12.00
29460;PMS7003;16428;47.836;35.106;2023-04-01T18:26:43;8.75;6.75;6.50
29460;PMS7003;16428;47.836;35.106;2023-04-01T18:31:51;7.00;7.00;6.00
29460;PMS7003;16428;47.836;35.106;2023-04-01T18:43:12;12.25;9.00;8.50
29460;PMS7003;16428;47.836;35.106;2023-04-01T18:46:22;10.50;6.75;5.25
29460;PMS7003;16428;47.836;35.106;2023-04-01T18:49:25;11.50;10.00;7.25
29460;PMS7003;16428;47.836;35.106;2023-04-01T18:52:16;12.00;10.50;8.25
29460;PMS7003;16428;47.836;35.106;2023-04-01T19:00:17;12.75;10.25;8.50
29460;PMS7003;16428;47.836;35.106;2023-04-01T19:03:12;9.00;9.00;7.00
29460;PMS7003;16428;47.836;35.106;2023-04-01T19:05:47;9.50;6.00;5.25
29460;PMS7003;16428;47.836;35.106;2023-04-01T19:24:44;11.00;8.50;6.00
29460;PMS7003;16428;47.836;35.106;2023-04-01T19:27:26;9.75;8.75;8.00
29460;PMS7003;16428;47.836;35.106;2023-04-01T19:38:58;10.25;7.00;6.00
29460;PMS7003;16428;47.836;35.106;2023-04-01T19:47:05;7.00;6.00;5.75
29460;PMS7003;16428;47.836;35.106;2023-04-01T19:49:58;8.00;5.25;5.00
29460;PMS7003;16428;47.836;35.106;2023-04-01T19:52:36;11.00;8.00;6.75
29460;PMS7003;16428;47.836;35.106;2023-04-01T20:00:23;4.50;4.50;4.00
29460;PMS7003;16428;47.836;35.106;2023-04-01T20:14:51;5.00;3.50;2.50
29460;PMS7003;16428;47.836;35.106;2023-04-01T20:17:33;3.00;3.00;3.00
29460;PMS7003;16428;47.836;35.106;2023-04-01T20:25:18;10.25;8.25;4.50
29460;PMS7003;16428;47.836;35.106;2023-04-01T20:33:48;12.00;7.50;4.00
29460;PMS7003;16428;47.836;35.106;2023-04-01T21:07:16;3.50;3.25;2.50
29460;PMS7003;16428;47.836;35.106;2023-04-01T21:16:09;6.00;6.00;5.50
29460;PMS7003;16428;47.836;35.106;2023-04-01T21:22:11;6.25;4.75;3.75
29460;PMS7003;16428;47.836;35.106;2023-04-01T21:38:26;3.75;3.75;3.50
29460;PMS7003;16428;47.836;35.106;2023-04-01T21:44:08;8.75;5.00;4.00
29460;PMS7003;16428;47.836;35.106;2023-04-01T21:49:35;5.75;5.75;4.00
29460;PMS7003;16428;47.836;35.106;2023-04-01T21:52:24;3.75;3.75;3.00
29460;PMS7003;16428;47.836;35.106;2023-04-01T21:55:36;4.75;4.75;4.00
29460;PMS7003;16428;47.836;35.106;2023-04-01T22:01:42;7.75;4.75;4.25
29460;PMS7003;16428;47.836;35.106;2023-04-01T22:04:33;3.00;3.00;2.75
29460;PMS7003;16428;47.836;35.106;2023-04-01T22:07:10;6.50;3.50;2.50
29460;PMS7003;16428;47.836;35.106;2023-04-01T22:09:56;5.00;5.00;4.00
29460;PMS7003;16428;47.836;35.106;2023-04-01T22:18:19;2.75;2.75;2.00
29460;PMS7003;16428;47.836;35.106;2023-04-01T22:21:03;3.75;3.75;3.00
29460;PMS7003;16428;47.836;35.106;2023-04-01T22:29:35;11.50;10.50;8.25
29460;PMS7003;16428;47.836;35.106;2023-04-01T22:34:52;3.75;3.75;3.00
29460;PMS7003;16428;47.836;35.106;2023-04-01T22:43:59;3.50;3.00;3.00
29460;PMS7003;16428;47.836;35.106;2023-04-01T22:49:19;4.50;4.50;3.00
29460;PMS7003;16428;47.836;35.106;2023-04-01T22:52:04;7.00;4.25;2.75
29460;PMS7003;16428;47.836;35.106;2023-04-01T22:54:41;9.75;4.00;3.00
29460;PMS7003;16428;47.836;35.106;2023-04-01T22:57:31;16.25;10.00;8.00
29460;PMS7003;16428;47.836;35.106;2023-04-01T23:00:20;8.75;5.50;4.00
29460;PMS7003;16428;47.836;35.106;2023-04-01T23:05:26;6.50;4.00;3.25
29460;PMS7003;16428;47.836;35.106;2023-04-01T23:07:56;5.25;4.00;3.00
29460;PMS7003;16428;47.836;35.106;2023-04-01T23:10:56;3.50;3.50;3.00
29460;PMS7003;16428;47.836;35.106;2023-04-01T23:13:38;3.50;3.50;3.00
29460;PMS7003;16428;47.836;35.106;2023-04-01T23:16:12;3.00;3.00;3.00
29460;PMS7003;16428;47.836;35.106;2023-04-01T23:18:46;5.00;5.00;4.00
29460;PMS7003;16428;47.836;35.106;2023-04-01T23:21:26;5.75;5.00;2.00
29460;PMS7003;16428;47.836;35.106;2023-04-01T23:27:12;2.75;1.00;0.00
29460;PMS7003;16428;47.836;35.106;2023-04-01T23:29:48;4.00;4.00;3.25
29460;PMS7003;16428;47.836;35.106;2023-04-01T23:32:17;4.00;3.00;2.50
29460;PMS7003;16428;47.836;35.106;2023-04-01T23:34:48;3.50;3.50;2.75
29460;PMS7003;16428;47.836;35.106;2023-04-01T23:37:18;14.00;10.50;6.25
29460;PMS7003;16428;47.836;35.106;2023-04-01T23:40:05;12.75;10.25;8.00
29460;PMS7003;16428;47.836;35.106;2023-04-01T23:42:40;6.25;5.25;5.00
29460;PMS7003;16428;47.836;35.106;2023-04-01T23:45:13;4.00;4.00;3.75
29460;PMS7003;16428;47.836;35.106;2023-04-01T23:47:49;4.25;3.25;2.25
29460;PMS7003;16428;47.836;35.106;2023-04-01T23:50:23;5.00;4.00;4.00
29460;PMS7003;16428;47.836;35.106;2023-04-01T23:53:02;4.25;2.50;2.00
29460;PMS7003;16428;47.836;35.106;2023-04-01T23:55:32;3.00;3.00;2.00
